sensor_id;sensor_type;location;lat;lon;timestamp;temperature;humidity
43047;DHT22;28672;49.358;8.780;2022-07-23T00:02:24;21.90;99.90
43047;DHT22;28672;49.358;8.780;2022-07-23T00:04:50;21.90;99.90
43047;DHT22;28672;49.358;8.780;2022-07-23T00:07:15;21.90;99.90
43047;DHT22;28672;49.358;8.780;2022-07-23T00:09:41;21.90;99.90
43047;DHT22;28672;49.358;8.780;2022-07-23T00:12:06;21.80;99.90
43047;DHT22;28672;49.358;8.780;2022-07-23T00:14:32;21.80;99.90
43047;DHT22;28672;49.358;8.780;2022-07-23T00:16:57;21.80;99.90
43047;DHT22;28672;49.358;8.780;2022-07-23T00:19:23;21.80;99.90
43047;DHT22;28672;49.358;8.780;2022-07-23T00:21:49;21.80;99.90
43047;DHT22;28672;49.358;8.780;2022-07-23T00:24:14;21.70;99.90
43047;DHT22;28672;49.358;8.780;2022-07-23T00:26:40;21.60;99.90
43047;DHT22;28672;49.358;8.780;2022-07-23T00:29:05;21.60;99.90
43047;DHT22;28672;49.358;8.780;2022-07-23T00:31:31;21.60;99.90
43047;DHT22;28672;49.358;8.780;2022-07-23T00:33:56;21.70;99.90
43047;DHT22;28672;49.358;8.780;2022-07-23T00:36:23;21.80;99.90
43047;DHT22;28672;49.358;8.780;2022-07-23T00:38:49;21.70;99.90
43047;DHT22;28672;49.358;8.780;2022-07-23T00:41:15;21.70;99.90
43047;DHT22;28672;49.358;8.780;2022-07-23T00:43:41;21.70;99.90
43047;DHT22;28672;49.358;8.780;2022-07-23T00:46:06;21.70;99.90
43047;DHT22;28672;49.358;8.780;2022-07-23T00:48:32;21.70;99.90
43047;DHT22;28672;49.358;8.780;2022-07-23T00:50:57;21.60;99.90
43047;DHT22;28672;49.358;8.780;2022-07-23T00:53:23;21.50;99.90
43047;DHT22;28672;49.358;8.780;2022-07-23T00:55:49;21.40;99.90
43047;DHT22;28672;49.358;8.780;2022-07-23T00:58:15;21.40;99.90
43047;DHT22;28672;49.358;8.780;2022-07-23T01:00:41;21.40;99.90
43047;DHT22;28672;49.358;8.780;2022-07-23T01:03:06;21.30;99.90
43047;DHT22;28672;49.358;8.780;2022-07-23T01:05:32;21.30;99.90
43047;DHT22;28672;49.358;8.780;2022-07-23T01:07:58;21.30;99.90
43047;DHT22;28672;49.358;8.780;2022-07-23T01:10:24;21.20;99.90
43047;DHT22;28672;49.358;8.780;2022-07-23T01:12:59;21.20;99.90
43047;DHT22;28672;49.358;8.780;2022-07-23T01:15:25;21.20;99.90
43047;DHT22;28672;49.358;8.780;2022-07-23T01:17:51;21.10;99.90
43047;DHT22;28672;49.358;8.780;2022-07-23T01:20:17;21.20;99.90
43047;DHT22;28672;49.358;8.780;2022-07-23T01:22:43;21.10;99.90
43047;DHT22;28672;49.358;8.780;2022-07-23T01:25:09;21.10;99.90
43047;DHT22;28672;49.358;8.780;2022-07-23T01:27:34;21.00;99.90
43047;DHT22;28672;49.358;8.780;2022-07-23T01:30:01;20.90;99.90
43047;DHT22;28672;49.358;8.780;2022-07-23T01:32:26;20.80;99.90
43047;DHT22;28672;49.358;8.780;2022-07-23T01:34:52;20.70;99.90
43047;DHT22;28672;49.358;8.780;2022-07-23T01:37:17;20.70;99.90
43047;DHT22;28672;49.358;8.780;2022-07-23T01:39:43;20.60;99.90
43047;DHT22;28672;49.358;8.780;2022-07-23T01:42:08;20.60;99.90
43047;DHT22;28672;49.358;8.780;2022-07-23T01:44:34;20.50;99.90
43047;DHT22;28672;49.358;8.780;2022-07-23T01:46:59;20.50;99.90
43047;DHT22;28672;49.358;8.780;2022-07-23T01:49:25;20.50;99.90
43047;DHT22;28672;49.358;8.780;2022-07-23T01:51:50;20.50;99.90
43047;DHT22;28672;49.358;8.780;2022-07-23T01:54:29;20.50;99.90
43047;DHT22;28672;49.358;8.780;2022-07-23T01:56:55;20.50;99.90
43047;DHT22;28672;49.358;8.780;2022-07-23T01:59:21;20.50;99.90
43047;DHT22;28672;49.358;8.780;2022-07-23T02:01:47;20.50;99.90
43047;DHT22;28672;49.358;8.780;2022-07-23T02:04:14;20.50;99.90
43047;DHT22;28672;49.358;8.780;2022-07-23T02:06:39;20.50;99.90
43047;DHT22;28672;49.358;8.780;2022-07-23T02:09:05;20.50;99.90
43047;DHT22;28672;49.358;8.780;2022-07-23T02:11:30;20.50;99.90
43047;DHT22;28672;49.358;8.780;2022-07-23T02:13:56;20.50;99.90
43047;DHT22;28672;49.358;8.780;2022-07-23T02:16:21;20.50;99.90
43047;DHT22;28672;49.358;8.780;2022-07-23T02:18:47;20.60;99.90
43047;DHT22;28672;49.358;8.780;2022-07-23T02:21:12;20.50;99.90
43047;DHT22;28672;49.358;8.780;2022-07-23T02:23:38;20.50;99.90
43047;DHT22;28672;49.358;8.780;2022-07-23T02:26:04;20.40;99.90
43047;DHT22;28672;49.358;8.780;2022-07-23T02:28:29;20.40;99.90
43047;DHT22;28672;49.358;8.780;2022-07-23T02:30:55;20.30;99.90
43047;DHT22;28672;49.358;8.780;2022-07-23T02:33:20;20.30;99.90
43047;DHT22;28672;49.358;8.780;2022-07-23T02:35:46;20.30;99.90
43047;DHT22;28672;49.358;8.780;2022-07-23T02:38:11;20.20;99.90
43047;DHT22;28672;49.358;8.780;2022-07-23T02:40:37;20.20;99.90
43047;DHT22;28672;49.358;8.780;2022-07-23T02:43:03;20.10;99.90
43047;DHT22;28672;49.358;8.780;2022-07-23T02:45:28;20.10;99.90
43047;DHT22;28672;49.358;8.780;2022-07-23T02:47:54;20.00;99.90
43047;DHT22;28672;49.358;8.780;2022-07-23T02:50:19;20.00;99.90
43047;DHT22;28672;49.358;8.780;2022-07-23T02:52:45;20.00;99.90
43047;DHT22;28672;49.358;8.780;2022-07-23T02:55:10;20.10;99.90
43047;DHT22;28672;49.358;8.780;2022-07-23T02:57:36;20.10;99.90
43047;DHT22;28672;49.358;8.780;2022-07-23T03:00:03;20.00;99.90
43047;DHT22;28672;49.358;8.780;2022-07-23T03:02:29;20.10;99.90
43047;DHT22;28672;49.358;8.780;2022-07-23T03:04:55;20.10;99.90
43047;DHT22;28672;49.358;8.780;2022-07-23T03:07:20;20.20;99.90
43047;DHT22;28672;49.358;8.780;2022-07-23T03:09:46;20.20;99.90
43047;DHT22;28672;49.358;8.780;2022-07-23T03:12:12;20.30;99.90
43047;DHT22;28672;49.358;8.780;2022-07-23T03:14:37;20.20;99.90
43047;DHT22;28672;49.358;8.780;2022-07-23T03:17:03;20.30;99.90
43047;DHT22;28672;49.358;8.780;2022-07-23T03:19:28;20.30;99.90
43047;DHT22;28672;49.358;8.780;2022-07-23T03:21:54;20.30;99.90
43047;DHT22;28672;49.358;8.780;2022-07-23T03:24:19;20.30;99.90
43047;DHT22;28672;49.358;8.780;2022-07-23T03:26:45;20.40;99.90
43047;DHT22;28672;49.358;8.780;2022-07-23T03:29:10;20.40;99.90
43047;DHT22;28672;49.358;8.780;2022-07-23T03:31:36;20.40;99.90
43047;DHT22;28672;49.358;8.780;2022-07-23T03:34:01;20.40;99.90
43047;DHT22;28672;49.358;8.780;2022-07-23T03:36:27;20.40;99.90
43047;DHT22;28672;49.358;8.780;2022-07-23T03:38:53;20.30;99.90
43047;DHT22;28672;49.358;8.780;2022-07-23T03:41:19;20.30;99.90
43047;DHT22;28672;49.358;8.780;2022-07-23T03:43:45;20.40;99.90
43047;DHT22;28672;49.358;8.780;2022-07-23T03:46:11;20.40;99.90
43047;DHT22;28672;49.358;8.780;2022-07-23T03:48:36;20.40;99.90
43047;DHT22;28672;49.358;8.780;2022-07-23T03:51:02;20.40;99.90
43047;DHT22;28672;49.358;8.780;2022-07-23T03:53:28;20.40;99.90
43047;DHT22;28672;49.358;8.780;2022-07-23T03:55:54;20.40;99.90
43047;DHT22;28672;49.358;8.780;2022-07-23T03:58:19;20.40;99.90
43047;DHT22;28672;49.358;8.780;2022-07-23T04:00:45;20.20;99.90
43047;DHT22;28672;49.358;8.780;2022-07-23T04:03:11;20.20;99.90
43047;DHT22;28672;49.358;8.780;2022-07-23T04:05:37;20.20;99.90
43047;DHT22;28672;49.358;8.780;2022-07-23T04:08:02;20.10;99.90
43047;DHT22;28672;49.358;8.780;2022-07-23T04:10:28;20.10;99.90
43047;DHT22;28672;49.358;8.780;2022-07-23T04:12:53;20.10;99.90
43047;DHT22;28672;49.358;8.780;2022-07-23T04:15:19;20.10;99.90
43047;DHT22;28672;49.358;8.780;2022-07-23T04:17:44;20.10;99.90
43047;DHT22;28672;49.358;8.780;2022-07-23T04:20:12;20.10;99.90
43047;DHT22;28672;49.358;8.780;2022-07-23T04:22:38;20.20;99.90
43047;DHT22;28672;49.358;8.780;2022-07-23T04:25:03;20.20;99.90
43047;DHT22;28672;49.358;8.780;2022-07-23T04:27:29;20.30;99.90
43047;DHT22;28672;49.358;8.780;2022-07-23T04:29:55;20.40;99.90
43047;DHT22;28672;49.358;8.780;2022-07-23T04:32:20;20.40;99.90
43047;DHT22;28672;49.358;8.780;2022-07-23T04:34:45;20.40;99.90
43047;DHT22;28672;49.358;8.780;2022-07-23T04:37:11;20.50;99.90
43047;DHT22;28672;49.358;8.780;2022-07-23T04:39:37;20.50;99.90
43047;DHT22;28672;49.358;8.780;2022-07-23T04:42:02;20.40;99.90
43047;DHT22;28672;49.358;8.780;2022-07-23T04:44:28;20.30;99.90
43047;DHT22;28672;49.358;8.780;2022-07-23T04:46:53;20.30;99.90
43047;DHT22;28672;49.358;8.780;2022-07-23T04:49:19;20.30;99.90
43047;DHT22;28672;49.358;8.780;2022-07-23T04:51:45;20.30;99.90
43047;DHT22;28672;49.358;8.780;2022-07-23T04:54:10;20.30;99.90
43047;DHT22;28672;49.358;8.780;2022-07-23T04:56:36;20.30;99.90
43047;DHT22;28672;49.358;8.780;2022-07-23T04:59:01;20.30;99.90
43047;DHT22;28672;49.358;8.780;2022-07-23T05:01:27;20.20;99.90
43047;DHT22;28672;49.358;8.780;2022-07-23T05:03:52;20.30;99.90
43047;DHT22;28672;49.358;8.780;2022-07-23T05:06:18;20.30;99.90
43047;DHT22;28672;49.358;8.780;2022-07-23T05:08:43;20.30;99.90
43047;DHT22;28672;49.358;8.780;2022-07-23T05:11:09;20.40;99.90
43047;DHT22;28672;49.358;8.780;2022-07-23T05:13:34;20.40;99.90
43047;DHT22;28672;49.358;8.780;2022-07-23T05:16:00;20.50;99.90
43047;DHT22;28672;49.358;8.780;2022-07-23T05:18:25;20.50;99.90
43047;DHT22;28672;49.358;8.780;2022-07-23T05:20:51;20.60;99.90
43047;DHT22;28672;49.358;8.780;2022-07-23T05:23:16;20.50;99.90
43047;DHT22;28672;49.358;8.780;2022-07-23T05:25:42;20.40;99.90
43047;DHT22;28672;49.358;8.780;2022-07-23T05:28:08;20.40;99.90
43047;DHT22;28672;49.358;8.780;2022-07-23T05:30:33;20.40;99.90
43047;DHT22;28672;49.358;8.780;2022-07-23T05:32:59;20.40;99.90
43047;DHT22;28672;49.358;8.780;2022-07-23T05:35:24;20.40;99.90
43047;DHT22;28672;49.358;8.780;2022-07-23T05:37:50;20.50;99.90
43047;DHT22;28672;49.358;8.780;2022-07-23T05:40:18;20.50;99.90
43047;DHT22;28672;49.358;8.780;2022-07-23T05:42:43;20.60;99.90
43047;DHT22;28672;49.358;8.780;2022-07-23T05:45:09;20.60;99.90
43047;DHT22;28672;49.358;8.780;2022-07-23T05:47:46;20.60;99.90
43047;DHT22;28672;49.358;8.780;2022-07-23T05:50:12;20.60;99.90
43047;DHT22;28672;49.358;8.780;2022-07-23T05:52:39;20.60;99.90
43047;DHT22;28672;49.358;8.780;2022-07-23T05:55:05;20.60;99.90
43047;DHT22;28672;49.358;8.780;2022-07-23T05:57:31;20.60;99.90
43047;DHT22;28672;49.358;8.780;2022-07-23T05:59:56;20.60;99.90
43047;DHT22;28672;49.358;8.780;2022-07-23T06:02:22;20.70;99.90
43047;DHT22;28672;49.358;8.780;2022-07-23T06:04:47;20.60;99.90
43047;DHT22;28672;49.358;8.780;2022-07-23T06:07:13;20.60;99.90
43047;DHT22;28672;49.358;8.780;2022-07-23T06:09:39;20.70;99.90
43047;DHT22;28672;49.358;8.780;2022-07-23T06:12:04;20.80;99.90
43047;DHT22;28672;49.358;8.780;2022-07-23T06:14:30;20.80;99.90
43047;DHT22;28672;49.358;8.780;2022-07-23T06:16:56;20.80;99.90
43047;DHT22;28672;49.358;8.780;2022-07-23T06:19:21;20.90;99.90
43047;DHT22;28672;49.358;8.780;2022-07-23T06:21:47;20.90;99.90
43047;DHT22;28672;49.358;8.780;2022-07-23T06:24:12;21.10;99.90
43047;DHT22;28672;49.358;8.780;2022-07-23T06:26:38;21.20;99.90
43047;DHT22;28672;49.358;8.780;2022-07-23T06:29:03;21.40;99.90
43047;DHT22;28672;49.358;8.780;2022-07-23T06:31:29;21.50;99.90
43047;DHT22;28672;49.358;8.780;2022-07-23T06:33:54;21.60;99.90
43047;DHT22;28672;49.358;8.780;2022-07-23T06:36:20;21.60;99.90
43047;DHT22;28672;49.358;8.780;2022-07-23T06:38:46;21.60;99.90
43047;DHT22;28672;49.358;8.780;2022-07-23T06:41:11;21.60;99.90
43047;DHT22;28672;49.358;8.780;2022-07-23T06:43:38;21.70;99.90
43047;DHT22;28672;49.358;8.780;2022-07-23T06:46:03;21.70;99.90
43047;DHT22;28672;49.358;8.780;2022-07-23T06:48:29;21.50;99.90
43047;DHT22;28672;49.358;8.780;2022-07-23T06:50:55;21.50;99.90
43047;DHT22;28672;49.358;8.780;2022-07-23T06:53:20;21.50;99.90
43047;DHT22;28672;49.358;8.780;2022-07-23T06:55:46;21.50;99.90
43047;DHT22;28672;49.358;8.780;2022-07-23T06:58:11;21.50;99.90
43047;DHT22;28672;49.358;8.780;2022-07-23T07:00:39;21.30;99.90
43047;DHT22;28672;49.358;8.780;2022-07-23T07:03:05;21.40;99.90
43047;DHT22;28672;49.358;8.780;2022-07-23T07:05:30;21.50;99.90
43047;DHT22;28672;49.358;8.780;2022-07-23T07:07:56;21.40;99.90
43047;DHT22;28672;49.358;8.780;2022-07-23T07:10:22;21.40;99.90
43047;DHT22;28672;49.358;8.780;2022-07-23T07:12:47;21.50;99.90
43047;DHT22;28672;49.358;8.780;2022-07-23T07:15:13;21.60;99.90
43047;DHT22;28672;49.358;8.780;2022-07-23T07:17:38;21.70;99.90
43047;DHT22;28672;49.358;8.780;2022-07-23T07:20:05;21.90;99.90
43047;DHT22;28672;49.358;8.780;2022-07-23T07:22:31;22.00;99.90
43047;DHT22;28672;49.358;8.780;2022-07-23T07:24:57;22.30;99.90
43047;DHT22;28672;49.358;8.780;2022-07-23T07:27:22;22.50;99.90
43047;DHT22;28672;49.358;8.780;2022-07-23T07:29:48;22.70;99.90
43047;DHT22;28672;49.358;8.780;2022-07-23T07:32:13;23.00;99.90
43047;DHT22;28672;49.358;8.780;2022-07-23T07:34:39;23.20;99.90
43047;DHT22;28672;49.358;8.780;2022-07-23T07:37:04;23.40;99.90
43047;DHT22;28672;49.358;8.780;2022-07-23T07:39:30;23.70;99.90
43047;DHT22;28672;49.358;8.780;2022-07-23T07:41:55;23.80;99.90
43047;DHT22;28672;49.358;8.780;2022-07-23T07:44:21;23.80;99.90
43047;DHT22;28672;49.358;8.780;2022-07-23T07:46:46;23.80;99.90
43047;DHT22;28672;49.358;8.780;2022-07-23T07:49:12;24.10;99.90
43047;DHT22;28672;49.358;8.780;2022-07-23T07:51:38;23.90;99.90
43047;DHT22;28672;49.358;8.780;2022-07-23T07:54:03;24.20;99.90
43047;DHT22;28672;49.358;8.780;2022-07-23T07:56:29;24.40;99.90
43047;DHT22;28672;49.358;8.780;2022-07-23T07:58:54;24.60;99.90
43047;DHT22;28672;49.358;8.780;2022-07-23T08:01:20;24.60;99.90
43047;DHT22;28672;49.358;8.780;2022-07-23T08:03:46;24.80;99.90
43047;DHT22;28672;49.358;8.780;2022-07-23T08:06:12;25.20;99.90
43047;DHT22;28672;49.358;8.780;2022-07-23T08:08:37;25.40;99.90
43047;DHT22;28672;49.358;8.780;2022-07-23T08:11:03;25.00;99.90
43047;DHT22;28672;49.358;8.780;2022-07-23T08:13:28;24.80;99.90
43047;DHT22;28672;49.358;8.780;2022-07-23T08:15:54;25.40;99.90
43047;DHT22;28672;49.358;8.780;2022-07-23T08:18:19;25.30;99.90
43047;DHT22;28672;49.358;8.780;2022-07-23T08:20:45;25.30;99.90
43047;DHT22;28672;49.358;8.780;2022-07-23T08:23:10;24.90;99.90
43047;DHT22;28672;49.358;8.780;2022-07-23T08:25:41;24.60;99.90
43047;DHT22;28672;49.358;8.780;2022-07-23T08:28:10;24.70;99.90
43047;DHT22;28672;49.358;8.780;2022-07-23T08:30:37;24.90;99.90
43047;DHT22;28672;49.358;8.780;2022-07-23T08:33:08;25.20;99.90
43047;DHT22;28672;49.358;8.780;2022-07-23T08:35:43;25.30;99.90
43047;DHT22;28672;49.358;8.780;2022-07-23T08:38:15;25.40;99.90
43047;DHT22;28672;49.358;8.780;2022-07-23T08:40:45;25.80;99.90
43047;DHT22;28672;49.358;8.780;2022-07-23T08:43:19;26.10;99.90
43047;DHT22;28672;49.358;8.780;2022-07-23T08:45:48;26.00;99.90
43047;DHT22;28672;49.358;8.780;2022-07-23T08:48:22;26.20;99.90
43047;DHT22;28672;49.358;8.780;2022-07-23T08:50:51;26.10;99.90
43047;DHT22;28672;49.358;8.780;2022-07-23T08:53:17;26.00;99.90
43047;DHT22;28672;49.358;8.780;2022-07-23T08:55:47;26.10;99.90
43047;DHT22;28672;49.358;8.780;2022-07-23T08:58:13;25.90;99.90
43047;DHT22;28672;49.358;8.780;2022-07-23T09:00:39;25.80;99.90
43047;DHT22;28672;49.358;8.780;2022-07-23T09:03:05;25.50;99.90
43047;DHT22;28672;49.358;8.780;2022-07-23T09:05:30;25.40;99.90
43047;DHT22;28672;49.358;8.780;2022-07-23T09:08:13;25.30;99.90
43047;DHT22;28672;49.358;8.780;2022-07-23T09:10:56;25.40;99.90
43047;DHT22;28672;49.358;8.780;2022-07-23T09:15:50;25.70;99.90
43047;DHT22;28672;49.358;8.780;2022-07-23T09:18:16;25.80;99.90
43047;DHT22;28672;49.358;8.780;2022-07-23T09:20:43;26.00;99.90
43047;DHT22;28672;49.358;8.780;2022-07-23T09:23:09;25.90;99.90
43047;DHT22;28672;49.358;8.780;2022-07-23T09:25:34;26.10;99.90
43047;DHT22;28672;49.358;8.780;2022-07-23T09:28:01;26.30;99.90
43047;DHT22;28672;49.358;8.780;2022-07-23T09:30:30;26.50;99.90
43047;DHT22;28672;49.358;8.780;2022-07-23T09:33:13;26.40;99.90
43047;DHT22;28672;49.358;8.780;2022-07-23T09:35:53;26.40;99.90
43047;DHT22;28672;49.358;8.780;2022-07-23T09:38:20;26.60;99.90
43047;DHT22;28672;49.358;8.780;2022-07-23T09:40:47;26.60;99.90
43047;DHT22;28672;49.358;8.780;2022-07-23T09:43:30;26.70;99.90
43047;DHT22;28672;49.358;8.780;2022-07-23T09:46:19;26.70;99.90
43047;DHT22;28672;49.358;8.780;2022-07-23T09:48:48;26.80;99.90
43047;DHT22;28672;49.358;8.780;2022-07-23T09:51:14;27.00;99.90
43047;DHT22;28672;49.358;8.780;2022-07-23T09:54:00;27.30;99.90
43047;DHT22;28672;49.358;8.780;2022-07-23T09:56:27;27.00;99.90
43047;DHT22;28672;49.358;8.780;2022-07-23T09:58:53;26.70;99.90
43047;DHT22;28672;49.358;8.780;2022-07-23T10:01:33;27.00;99.90
43047;DHT22;28672;49.358;8.780;2022-07-23T10:03:59;27.00;99.90
43047;DHT22;28672;49.358;8.780;2022-07-23T10:06:27;26.90;99.90
43047;DHT22;28672;49.358;8.780;2022-07-23T10:08:58;27.00;99.90
43047;DHT22;28672;49.358;8.780;2022-07-23T10:11:26;27.30;99.90
43047;DHT22;28672;49.358;8.780;2022-07-23T10:13:53;27.40;99.90
43047;DHT22;28672;49.358;8.780;2022-07-23T10:16:26;27.60;99.90
43047;DHT22;28672;49.358;8.780;2022-07-23T10:18:52;27.50;99.90
43047;DHT22;28672;49.358;8.780;2022-07-23T10:21:24;27.80;99.90
43047;DHT22;28672;49.358;8.780;2022-07-23T10:24:16;28.10;99.90
43047;DHT22;28672;49.358;8.780;2022-07-23T10:27:04;28.10;99.90
43047;DHT22;28672;49.358;8.780;2022-07-23T10:29:46;28.20;99.90
43047;DHT22;28672;49.358;8.780;2022-07-23T10:34:49;28.40;99.90
43047;DHT22;28672;49.358;8.780;2022-07-23T10:37:23;28.20;99.90
43047;DHT22;28672;49.358;8.780;2022-07-23T10:40:14;28.50;99.90
43047;DHT22;28672;49.358;8.780;2022-07-23T10:42:42;28.60;99.90
43047;DHT22;28672;49.358;8.780;2022-07-23T10:45:31;28.70;99.90
43047;DHT22;28672;49.358;8.780;2022-07-23T10:50:37;28.70;99.90
43047;DHT22;28672;49.358;8.780;2022-07-23T10:58:02;28.80;99.90
43047;DHT22;28672;49.358;8.780;2022-07-23T11:00:29;29.00;99.90
43047;DHT22;28672;49.358;8.780;2022-07-23T11:03:00;29.20;99.90
43047;DHT22;28672;49.358;8.780;2022-07-23T11:05:40;29.30;99.90
43047;DHT22;28672;49.358;8.780;2022-07-23T11:10:34;28.90;99.90
43047;DHT22;28672;49.358;8.780;2022-07-23T11:24:17;29.60;99.90
43047;DHT22;28672;49.358;8.780;2022-07-23T11:26:53;29.80;99.90
43047;DHT22;28672;49.358;8.780;2022-07-23T11:31:58;29.80;99.90
43047;DHT22;28672;49.358;8.780;2022-07-23T11:37:03;30.00;99.90
43047;DHT22;28672;49.358;8.780;2022-07-23T11:39:30;29.90;99.90
43047;DHT22;28672;49.358;8.780;2022-07-23T11:41:57;30.00;99.90
43047;DHT22;28672;49.358;8.780;2022-07-23T11:44:32;29.80;99.90
43047;DHT22;28672;49.358;8.780;2022-07-23T11:47:03;30.00;99.90
43047;DHT22;28672;49.358;8.780;2022-07-23T11:49:30;29.90;99.90
43047;DHT22;28672;49.358;8.780;2022-07-23T11:52:10;30.30;99.90
43047;DHT22;28672;49.358;8.780;2022-07-23T11:54:48;30.30;99.90
43047;DHT22;28672;49.358;8.780;2022-07-23T11:57:14;30.70;99.90
43047;DHT22;28672;49.358;8.780;2022-07-23T11:59:39;30.40;99.90
43047;DHT22;28672;49.358;8.780;2022-07-23T12:02:06;30.40;99.90
43047;DHT22;28672;49.358;8.780;2022-07-23T12:04:42;30.40;99.90
43047;DHT22;28672;49.358;8.780;2022-07-23T12:07:35;30.30;99.90
43047;DHT22;28672;49.358;8.780;2022-07-23T12:10:15;30.40;99.90
43047;DHT22;28672;49.358;8.780;2022-07-23T12:12:45;30.70;99.90
43047;DHT22;28672;49.358;8.780;2022-07-23T12:15:14;30.50;99.90
43047;DHT22;28672;49.358;8.780;2022-07-23T12:17:42;30.80;99.90
43047;DHT22;28672;49.358;8.780;2022-07-23T12:20:10;30.70;99.90
43047;DHT22;28672;49.358;8.780;2022-07-23T12:22:46;31.20;99.90
43047;DHT22;28672;49.358;8.780;2022-07-23T12:25:15;31.30;99.90
43047;DHT22;28672;49.358;8.780;2022-07-23T12:27:41;31.50;99.90
43047;DHT22;28672;49.358;8.780;2022-07-23T12:30:24;31.40;99.90
43047;DHT22;28672;49.358;8.780;2022-07-23T12:32:52;31.60;99.90
43047;DHT22;28672;49.358;8.780;2022-07-23T12:35:18;31.60;99.90
43047;DHT22;28672;49.358;8.780;2022-07-23T12:37:45;31.60;99.90
43047;DHT22;28672;49.358;8.780;2022-07-23T12:42:45;31.70;99.90
43047;DHT22;28672;49.358;8.780;2022-07-23T12:45:11;31.40;99.90
43047;DHT22;28672;49.358;8.780;2022-07-23T12:48:02;31.70;99.90
43047;DHT22;28672;49.358;8.780;2022-07-23T12:53:17;31.50;99.90
43047;DHT22;28672;49.358;8.780;2022-07-23T12:55:44;31.20;99.90
43047;DHT22;28672;49.358;8.780;2022-07-23T12:58:19;31.00;99.90
43047;DHT22;28672;49.358;8.780;2022-07-23T13:01:03;30.80;99.90
43047;DHT22;28672;49.358;8.780;2022-07-23T13:03:40;30.60;99.90
43047;DHT22;28672;49.358;8.780;2022-07-23T13:06:08;30.10;99.90
43047;DHT22;28672;49.358;8.780;2022-07-23T13:08:36;29.80;99.90
43047;DHT22;28672;49.358;8.780;2022-07-23T13:11:03;29.80;99.90
43047;DHT22;28672;49.358;8.780;2022-07-23T13:13:30;29.80;99.90
43047;DHT22;28672;49.358;8.780;2022-07-23T13:15:57;29.80;99.90
43047;DHT22;28672;49.358;8.780;2022-07-23T13:18:25;30.10;99.90
43047;DHT22;28672;49.358;8.780;2022-07-23T13:20:51;30.20;99.90
43047;DHT22;28672;49.358;8.780;2022-07-23T13:23:17;30.20;99.90
43047;DHT22;28672;49.358;8.780;2022-07-23T13:25:43;30.20;99.90
43047;DHT22;28672;49.358;8.780;2022-07-23T13:28:09;30.20;99.90
43047;DHT22;28672;49.358;8.780;2022-07-23T13:30:34;30.60;99.90
43047;DHT22;28672;49.358;8.780;2022-07-23T13:33:02;30.70;99.90
43047;DHT22;28672;49.358;8.780;2022-07-23T13:35:28;30.60;99.90
43047;DHT22;28672;49.358;8.780;2022-07-23T13:37:53;30.60;99.90
43047;DHT22;28672;49.358;8.780;2022-07-23T13:40:19;30.20;99.90
43047;DHT22;28672;49.358;8.780;2022-07-23T13:42:45;30.00;99.90
43047;DHT22;28672;49.358;8.780;2022-07-23T13:45:11;30.20;99.90
43047;DHT22;28672;49.358;8.780;2022-07-23T13:47:36;30.30;99.90
43047;DHT22;28672;49.358;8.780;2022-07-23T13:50:03;30.00;99.90
43047;DHT22;28672;49.358;8.780;2022-07-23T13:52:29;29.70;99.90
43047;DHT22;28672;49.358;8.780;2022-07-23T13:54:54;29.60;99.90
43047;DHT22;28672;49.358;8.780;2022-07-23T13:57:20;29.70;99.90
43047;DHT22;28672;49.358;8.780;2022-07-23T13:59:45;29.50;99.90
43047;DHT22;28672;49.358;8.780;2022-07-23T14:02:14;29.30;99.90
43047;DHT22;28672;49.358;8.780;2022-07-23T14:04:40;29.40;99.90
43047;DHT22;28672;49.358;8.780;2022-07-23T14:07:06;29.50;99.90
43047;DHT22;28672;49.358;8.780;2022-07-23T14:09:31;29.70;99.90
43047;DHT22;28672;49.358;8.780;2022-07-23T14:11:59;29.20;99.90
43047;DHT22;28672;49.358;8.780;2022-07-23T14:14:24;29.30;99.90
43047;DHT22;28672;49.358;8.780;2022-07-23T14:16:50;29.20;99.90
43047;DHT22;28672;49.358;8.780;2022-07-23T14:19:15;29.00;99.90
43047;DHT22;28672;49.358;8.780;2022-07-23T14:21:41;29.00;99.90
43047;DHT22;28672;49.358;8.780;2022-07-23T14:24:07;28.80;99.90
43047;DHT22;28672;49.358;8.780;2022-07-23T14:26:32;28.60;99.90
43047;DHT22;28672;49.358;8.780;2022-07-23T14:28:58;28.70;99.90
43047;DHT22;28672;49.358;8.780;2022-07-23T14:31:23;28.90;99.90
43047;DHT22;28672;49.358;8.780;2022-07-23T14:33:49;29.00;99.90
43047;DHT22;28672;49.358;8.780;2022-07-23T14:36:15;29.00;99.90
43047;DHT22;28672;49.358;8.780;2022-07-23T14:38:41;29.00;99.90
43047;DHT22;28672;49.358;8.780;2022-07-23T14:41:06;29.10;99.90
43047;DHT22;28672;49.358;8.780;2022-07-23T14:43:33;29.00;99.90
43047;DHT22;28672;49.358;8.780;2022-07-23T14:45:59;28.90;99.90
43047;DHT22;28672;49.358;8.780;2022-07-23T14:48:25;28.70;99.90
43047;DHT22;28672;49.358;8.780;2022-07-23T14:50:51;28.70;99.90
43047;DHT22;28672;49.358;8.780;2022-07-23T14:53:17;28.90;99.90
43047;DHT22;28672;49.358;8.780;2022-07-23T14:55:42;29.00;99.90
43047;DHT22;28672;49.358;8.780;2022-07-23T14:58:08;29.20;99.90
43047;DHT22;28672;49.358;8.780;2022-07-23T15:00:34;29.30;99.90
43047;DHT22;28672;49.358;8.780;2022-07-23T15:02:59;29.20;99.90
43047;DHT22;28672;49.358;8.780;2022-07-23T15:05:25;29.40;99.90
43047;DHT22;28672;49.358;8.780;2022-07-23T15:07:51;29.10;99.90
43047;DHT22;28672;49.358;8.780;2022-07-23T15:10:16;29.00;99.90
43047;DHT22;28672;49.358;8.780;2022-07-23T15:12:42;29.20;99.90
43047;DHT22;28672;49.358;8.780;2022-07-23T15:15:08;29.00;99.90
43047;DHT22;28672;49.358;8.780;2022-07-23T15:17:34;29.20;99.90
43047;DHT22;28672;49.358;8.780;2022-07-23T15:19:59;29.50;99.90
43047;DHT22;28672;49.358;8.780;2022-07-23T15:22:25;29.70;99.90
43047;DHT22;28672;49.358;8.780;2022-07-23T15:24:50;29.80;99.90
43047;DHT22;28672;49.358;8.780;2022-07-23T15:27:16;29.90;99.90
43047;DHT22;28672;49.358;8.780;2022-07-23T15:29:43;30.20;99.90
43047;DHT22;28672;49.358;8.780;2022-07-23T15:32:09;30.30;99.90
43047;DHT22;28672;49.358;8.780;2022-07-23T15:34:36;30.50;99.90
43047;DHT22;28672;49.358;8.780;2022-07-23T15:37:01;30.60;99.90
43047;DHT22;28672;49.358;8.780;2022-07-23T15:39:27;30.70;99.90
43047;DHT22;28672;49.358;8.780;2022-07-23T15:41:53;30.40;99.90
43047;DHT22;28672;49.358;8.780;2022-07-23T15:44:18;30.40;99.90
43047;DHT22;28672;49.358;8.780;2022-07-23T15:46:44;30.40;99.90
43047;DHT22;28672;49.358;8.780;2022-07-23T15:49:10;30.40;99.90
43047;DHT22;28672;49.358;8.780;2022-07-23T15:51:35;30.50;99.90
43047;DHT22;28672;49.358;8.780;2022-07-23T15:54:01;30.50;99.90
43047;DHT22;28672;49.358;8.780;2022-07-23T15:56:26;30.40;99.90
43047;DHT22;28672;49.358;8.780;2022-07-23T15:58:52;30.30;99.90
43047;DHT22;28672;49.358;8.780;2022-07-23T16:01:17;30.00;99.90
43047;DHT22;28672;49.358;8.780;2022-07-23T16:03:43;29.90;99.90
43047;DHT22;28672;49.358;8.780;2022-07-23T16:06:08;29.90;99.90
43047;DHT22;28672;49.358;8.780;2022-07-23T16:08:34;30.00;99.90